createdAt,value
2023-04-20T00:01:11.832Z,102171.06
2023-04-20T00:03:39.789Z,102166.91
2023-04-20T00:06:07.993Z,102159.00
2023-04-20T00:08:35.843Z,102161.91
2023-04-20T00:11:03.720Z,102164.81
2023-04-20T00:13:32.803Z,102163.97
2023-04-20T00:16:00.568Z,102160.03
2023-04-20T00:18:28.284Z,102153.59
2023-04-20T00:20:56.004Z,102155.88
2023-04-20T00:23:23.688Z,102152.75
2023-04-20T00:25:52.219Z,102150.44
2023-04-20T00:28:20.000Z,102139.84
2023-04-20T00:30:49.114Z,102128.44
2023-04-20T00:33:16.888Z,102134.88
2023-04-20T00:35:44.591Z,102128.84
2023-04-20T00:38:12.341Z,102126.34
2023-04-20T00:40:40.100Z,102121.16
2023-04-20T00:43:11.573Z,102121.38
2023-04-20T00:45:39.504Z,102114.56
2023-04-20T00:48:08.753Z,102113.72
2023-04-20T00:50:38.660Z,102110.19
2023-04-20T00:53:07.825Z,102110.41
2023-04-20T00:55:38.603Z,102104.19
2023-04-20T00:58:06.545Z,102099.81
2023-04-20T01:00:35.037Z,102091.09
2023-04-20T01:03:03.116Z,102089.25
2023-04-20T01:05:32.312Z,102082.19
2023-04-20T01:08:00.043Z,102083.00
2023-04-20T01:10:27.849Z,102075.97
2023-04-20T01:12:55.522Z,102075.13
2023-04-20T01:15:23.256Z,102055.63
2023-04-20T01:17:52.373Z,102056.84
2023-04-20T01:20:20.449Z,102063.94
2023-04-20T01:22:50.940Z,102066.00
2023-04-20T01:25:20.182Z,102059.78
2023-04-20T01:27:47.923Z,102045.84
2023-04-20T01:30:17.235Z,102055.63
2023-04-20T01:32:45.443Z,102051.66
2023-04-20T01:35:13.205Z,102047.94
2023-04-20T01:37:41.835Z,102046.47
2023-04-20T01:40:13.394Z,102035.28
2023-04-20T01:42:41.348Z,102032.59
2023-04-20T01:45:10.122Z,102021.34
2023-04-20T01:47:38.148Z,102018.25
2023-04-20T01:50:06.514Z,102020.75
2023-04-20T01:52:34.192Z,102022.81
2023-04-20T01:55:01.933Z,102016.59
2023-04-20T01:57:31.052Z,102003.31
2023-04-20T01:59:58.792Z,102002.50
2023-04-20T02:02:26.648Z,102003.31
2023-04-20T02:04:54.505Z,101992.28
2023-04-20T02:07:22.210Z,101998.31
2023-04-20T02:09:49.894Z,102001.00
2023-04-20T02:12:17.608Z,101991.25
2023-04-20T02:14:46.685Z,101987.94
2023-04-20T02:17:14.976Z,101991.66
2023-04-20T02:19:42.816Z,101981.28
2023-04-20T02:22:10.553Z,101984.81
2023-04-20T02:24:38.212Z,101984.19
2023-04-20T02:27:06.327Z,101979.84
2023-04-20T02:29:34.039Z,101981.91
2023-04-20T02:32:03.114Z,101977.75
2023-04-20T02:34:30.850Z,101970.69
2023-04-20T02:36:58.600Z,101971.50
2023-04-20T02:39:26.413Z,101973.78
2023-04-20T02:41:54.117Z,101965.09
2023-04-20T02:44:21.789Z,101972.34
2023-04-20T02:46:49.541Z,101970.69
2023-04-20T02:49:18.956Z,101963.63
2023-04-20T02:51:46.895Z,101947.47
2023-04-20T02:54:14.709Z,101949.53
2023-04-20T02:56:42.441Z,101948.91
2023-04-20T02:59:10.341Z,101953.47
2023-04-20T03:01:38.111Z,101956.34
2023-04-20T03:04:06.641Z,101954.88
2023-04-20T03:06:38.708Z,101950.53
2023-04-20T03:09:08.924Z,101943.50
2023-04-20T03:11:36.714Z,101940.81
2023-04-20T03:14:04.418Z,101913.22
2023-04-20T03:16:32.227Z,101922.16
2023-04-20T03:19:00.003Z,101914.28
2023-04-20T03:21:27.696Z,101913.25
2023-04-20T03:23:56.725Z,101912.44
2023-04-20T03:26:24.440Z,101914.50
2023-04-20T03:28:52.431Z,101908.69
2023-04-20T03:31:20.240Z,101909.50
2023-04-20T03:33:47.999Z,101913.84
2023-04-20T03:36:15.707Z,101906.38
2023-04-20T03:38:43.396Z,101903.91
2023-04-20T03:41:12.493Z,101908.66
2023-04-20T03:43:41.331Z,101896.44
2023-04-20T03:46:09.101Z,101888.75
2023-04-20T03:48:36.884Z,101894.13
2023-04-20T03:51:04.773Z,101896.19
2023-04-20T03:53:32.480Z,101896.41
2023-04-20T03:56:00.758Z,101893.06
2023-04-20T03:58:29.881Z,101881.66
2023-04-20T04:01:02.377Z,101882.50
2023-04-20T04:03:30.346Z,101877.94
2023-04-20T04:05:58.393Z,101894.06
2023-04-20T04:08:26.737Z,101887.03
2023-04-20T04:10:54.458Z,101881.41
2023-04-20T04:13:22.200Z,101881.22
2023-04-20T04:15:51.256Z,101879.56
2023-04-20T04:18:18.924Z,101864.25
2023-04-20T04:20:46.594Z,101865.28
2023-04-20T04:23:14.336Z,101872.31
2023-04-20T04:25:42.280Z,101861.56
2023-04-20T04:28:10.065Z,101863.22
2023-04-20T04:30:37.863Z,101849.97
2023-04-20T04:33:07.706Z,101853.50
2023-04-20T04:35:35.486Z,101838.97
2023-04-20T04:38:03.262Z,101839.63
2023-04-20T04:40:32.759Z,101838.16
2023-04-20T04:43:01.005Z,101834.00
2023-04-20T04:45:28.713Z,101836.69
2023-04-20T04:47:57.207Z,101831.13
2023-04-20T04:50:26.367Z,101837.13
2023-04-20T04:52:54.128Z,101834.22
2023-04-20T04:55:21.801Z,101832.38
2023-04-20T04:57:49.515Z,101843.13
2023-04-20T05:00:19.412Z,101845.19
2023-04-20T05:02:47.307Z,101836.28
2023-04-20T05:05:15.594Z,101832.78
2023-04-20T05:07:44.743Z,101832.78
2023-04-20T05:10:14.138Z,101837.31
2023-04-20T05:12:42.861Z,101839.81
2023-04-20T05:15:11.345Z,101832.56
2023-04-20T05:17:39.086Z,101832.56
2023-04-20T05:20:10.493Z,101831.94
2023-04-20T05:22:38.363Z,101830.09
2023-04-20T05:25:08.832Z,101827.38
2023-04-20T05:27:36.768Z,101833.59
2023-04-20T05:30:16.984Z,101840.84
2023-04-20T05:32:49.971Z,101837.53
2023-04-20T05:35:19.208Z,101829.66
2023-04-20T05:37:47.695Z,101829.66
2023-04-20T05:40:17.259Z,101832.97
2023-04-20T05:42:44.971Z,101830.47
2023-04-20T05:45:12.978Z,101832.53
2023-04-20T05:47:40.800Z,101828.00
2023-04-20T05:50:10.287Z,101823.66
2023-04-20T05:52:38.144Z,101819.50
2023-04-20T05:55:06.625Z,101820.31
2023-04-20T05:57:41.810Z,101810.16
2023-04-20T06:00:11.689Z,101821.56
2023-04-20T06:02:39.803Z,101816.56
2023-04-20T06:05:09.419Z,101822.78
2023-04-20T06:07:37.507Z,101818.53
2023-04-20T06:10:06.654Z,101822.63
2023-04-20T06:12:35.953Z,101821.22
2023-04-20T06:15:04.790Z,101820.63
2023-04-20T06:17:32.534Z,101820.63
2023-04-20T06:20:00.262Z,101817.34
2023-04-20T06:22:28.046Z,101807.00
2023-04-20T06:24:55.829Z,101814.69
2023-04-20T06:27:23.531Z,101799.38
2023-04-20T06:29:52.597Z,101805.59
2023-04-20T06:32:20.372Z,101802.91
2023-04-20T06:34:48.292Z,101806.63
2023-04-20T06:37:16.132Z,101802.28
2023-04-20T06:39:43.849Z,101802.06
2023-04-20T06:42:11.598Z,101805.16
2023-04-20T06:44:39.303Z,101797.09
2023-04-20T06:47:08.454Z,101787.16
2023-04-20T06:49:37.548Z,101790.47
2023-04-20T06:52:05.519Z,101789.66
2023-04-20T06:54:33.535Z,101779.72
2023-04-20T06:57:01.361Z,101795.66
2023-04-20T06:59:29.070Z,101796.06
2023-04-20T07:01:56.785Z,101791.31
2023-04-20T07:04:26.179Z,101789.66
2023-04-20T07:06:54.491Z,101795.03
2023-04-20T07:09:23.076Z,101787.78
2023-04-20T07:11:50.820Z,101798.13
2023-04-20T07:14:18.525Z,101784.88
2023-04-20T07:16:46.300Z,101790.06
2023-04-20T07:19:14.039Z,101783.66
2023-04-20T07:21:43.122Z,101784.44
2023-04-20T07:24:10.830Z,101794.56
2023-04-20T07:26:38.591Z,101795.59
2023-04-20T07:29:06.434Z,101792.06
2023-04-20T07:31:35.422Z,101790.84
2023-04-20T07:34:03.457Z,101798.09
2023-04-20T07:36:31.208Z,101794.38
2023-04-20T07:39:00.307Z,101795.19
2023-04-20T07:41:28.143Z,101793.13
2023-04-20T07:43:55.878Z,101787.34
2023-04-20T07:46:24.011Z,101792.91
2023-04-20T07:48:51.757Z,101788.97
2023-04-20T07:51:19.473Z,101779.84
2023-04-20T07:53:48.073Z,101789.34
2023-04-20T07:56:17.151Z,101791.00
2023-04-20T07:58:44.859Z,101793.31
2023-04-20T08:01:12.581Z,101787.72
2023-04-20T08:03:41.769Z,101789.03
2023-04-20T08:06:10.980Z,101782.28
2023-04-20T08:08:38.681Z,101782.94
2023-04-20T08:11:08.105Z,101772.22
2023-04-20T08:13:37.732Z,101770.81
2023-04-20T08:16:06.021Z,101770.22
2023-04-20T08:18:33.852Z,101762.16
2023-04-20T08:21:01.594Z,101761.34
2023-04-20T08:23:29.339Z,101759.63
2023-04-20T08:25:57.153Z,101760.03
2023-04-20T08:30:58.784Z,101754.28
2023-04-20T08:33:26.548Z,101747.66
2023-04-20T08:35:54.342Z,101755.34
2023-04-20T08:38:32.822Z,101758.63
2023-04-20T08:41:01.823Z,101761.09
2023-04-20T08:43:29.539Z,101750.13
2023-04-20T08:46:01.737Z,101747.00
2023-04-20T08:48:35.056Z,101743.47
2023-04-20T08:51:03.022Z,101744.06
2023-04-20T08:53:30.868Z,101746.16
2023-04-20T08:55:58.756Z,101739.94
2023-04-20T08:58:29.543Z,101730.19
2023-04-20T09:00:57.251Z,101744.88
2023-04-20T09:03:34.568Z,101736.81
2023-04-20T09:06:02.534Z,101731.66
2023-04-20T09:08:36.448Z,101725.22
2023-04-20T09:11:04.179Z,101734.13
2023-04-20T09:13:31.937Z,101732.06
2023-04-20T09:16:10.422Z,101733.94
2023-04-20T09:18:39.557Z,101739.50
2023-04-20T09:21:10.791Z,101737.66
2023-04-20T09:23:38.658Z,101731.44
2023-04-20T09:26:06.722Z,101732.69
2023-04-20T09:28:39.673Z,101725.22
2023-04-20T09:31:07.461Z,101736.19
2023-04-20T09:33:36.743Z,101730.19
2023-04-20T09:36:06.943Z,101723.13
2023-04-20T09:38:34.692Z,101732.25
2023-04-20T09:41:02.905Z,101725.63
2023-04-20T09:43:31.504Z,101729.34
2023-04-20T09:46:00.302Z,101721.69
2023-04-20T09:48:29.153Z,101716.09
2023-04-20T09:50:58.974Z,101708.03
2023-04-20T09:53:28.099Z,101700.59
2023-04-20T09:55:56.157Z,101701.00
2023-04-20T09:58:23.927Z,101689.22
2023-04-20T10:00:51.930Z,101687.16
2023-04-20T10:03:21.723Z,101690.47
2023-04-20T10:05:51.652Z,101680.94
2023-04-20T10:08:21.243Z,101683.44
2023-04-20T10:10:52.295Z,101680.75
2023-04-20T10:13:21.927Z,101681.78
2023-04-20T10:15:49.868Z,101680.94
2023-04-20T10:18:19.787Z,101674.72
2023-04-20T10:20:48.075Z,101673.50
2023-04-20T10:23:18.494Z,101682.41
2023-04-20T10:25:58.341Z,101677.84
2023-04-20T10:28:26.267Z,101675.97
2023-04-20T10:30:54.806Z,101679.28
2023-04-20T10:33:22.919Z,101687.16
2023-04-20T10:35:54.536Z,101676.19
2023-04-20T10:38:32.237Z,101681.56
2023-04-20T10:41:08.303Z,101665.84
2023-04-20T10:43:38.960Z,101667.69
2023-04-20T10:46:14.902Z,101665.63
2023-04-20T10:48:51.202Z,101663.34
2023-04-20T10:51:19.054Z,101658.38
2023-04-20T10:53:46.781Z,101659.00
2023-04-20T10:56:15.936Z,101662.72
2023-04-20T10:58:43.763Z,101639.13
2023-04-20T11:01:11.505Z,101653.63
2023-04-20T11:03:39.300Z,101658.97
2023-04-20T11:06:07.612Z,101659.09
2023-04-20T11:08:39.823Z,101655.66
2023-04-20T11:11:18.247Z,101644.97
2023-04-20T11:13:47.484Z,101650.63
2023-04-20T11:16:16.891Z,101647.78
2023-04-20T11:18:51.424Z,101638.81
2023-04-20T11:21:19.418Z,101623.66
2023-04-20T11:23:47.631Z,101636.88
2023-04-20T11:26:15.905Z,101631.75
2023-04-20T11:28:56.443Z,101627.78
2023-04-20T11:31:25.546Z,101631.38
2023-04-20T11:33:53.451Z,101626.53
2023-04-20T11:36:22.110Z,101621.91
2023-04-20T11:38:50.104Z,101629.03
2023-04-20T11:41:18.403Z,101629.34
2023-04-20T11:43:46.283Z,101620.47
2023-04-20T11:46:17.106Z,101621.53
2023-04-20T11:48:45.535Z,101622.00
2023-04-20T11:51:13.332Z,101619.75
2023-04-20T11:53:41.395Z,101628.06
2023-04-20T11:56:09.750Z,101615.00
2023-04-20T11:58:38.329Z,101612.53
2023-04-20T12:01:06.798Z,101598.88
2023-04-20T12:03:37.066Z,101611.28
2023-04-20T12:06:05.552Z,101615.44
2023-04-20T12:08:33.276Z,101639.09
2023-04-20T12:11:01.003Z,101642.41
2023-04-20T12:13:28.720Z,101641.38
2023-04-20T12:15:56.506Z,101632.91
2023-04-20T12:18:26.788Z,101635.81
2023-04-20T12:20:55.882Z,101626.25
2023-04-20T12:23:23.616Z,101626.63
2023-04-20T12:25:51.366Z,101618.72
2023-04-20T12:28:19.246Z,101608.25
2023-04-20T12:30:47.040Z,101607.50
2023-04-20T12:33:14.800Z,101601.78
2023-04-20T12:35:42.665Z,101596.63
2023-04-20T12:38:13.977Z,101596.25
2023-04-20T12:40:42.308Z,101601.47
2023-04-20T12:43:10.064Z,101595.53
2023-04-20T12:45:37.790Z,101591.44
2023-04-20T12:48:06.350Z,101596.25
2023-04-20T12:50:34.220Z,101589.00
2023-04-20T12:53:02.378Z,101588.41
2023-04-20T12:55:31.766Z,101589.66
2023-04-20T12:57:59.531Z,101579.59
2023-04-20T13:00:27.413Z,101586.81
2023-04-20T13:02:55.286Z,101584.53
2023-04-20T13:05:23.159Z,101587.44
2023-04-20T13:07:51.487Z,101592.00
2023-04-20T13:10:19.209Z,101594.28
2023-04-20T13:12:48.267Z,101587.84
2023-04-20T13:15:28.304Z,101583.28
2023-04-20T13:17:59.952Z,101580.59
2023-04-20T13:20:29.305Z,101575.81
2023-04-20T13:22:58.510Z,101573.13
2023-04-20T13:25:26.664Z,101571.25
2023-04-20T13:27:56.309Z,101570.63
2023-04-20T13:30:25.073Z,101570.03
2023-04-20T13:32:52.958Z,101571.28
2023-04-20T13:35:21.106Z,101562.38
2023-04-20T13:37:48.948Z,101573.16
2023-04-20T13:40:16.739Z,101571.28
2023-04-20T13:42:44.477Z,101568.59
2023-04-20T13:45:13.865Z,101557.41
2023-04-20T13:47:41.879Z,101575.00
2023-04-20T13:50:10.550Z,101568.38
2023-04-20T13:52:38.441Z,101575.72
2023-04-20T13:55:06.663Z,101570.03
2023-04-20T13:57:44.303Z,101564.31
2023-04-20T14:00:12.823Z,101557.97
2023-04-20T14:02:40.715Z,101559.22
2023-04-20T14:05:10.280Z,101549.56
2023-04-20T14:07:38.131Z,101556.41
2023-04-20T14:10:07.141Z,101547.28
2023-04-20T14:12:34.994Z,101548.72
2023-04-20T14:15:04.460Z,101547.59
2023-04-20T14:17:32.269Z,101539.47
2023-04-20T14:20:00.602Z,101535.47
2023-04-20T14:22:34.142Z,101538.03
2023-04-20T14:25:01.869Z,101523.59
2023-04-20T14:27:29.613Z,101528.00
2023-04-20T14:29:57.323Z,101511.94
2023-04-20T14:32:26.462Z,101525.41
2023-04-20T14:34:54.276Z,101520.91
2023-04-20T14:37:23.190Z,101528.59
2023-04-20T14:39:50.905Z,101534.22
2023-04-20T14:42:18.662Z,101526.56
2023-04-20T14:44:47.829Z,101525.97
2023-04-20T14:47:15.531Z,101523.69
2023-04-20T14:49:45.099Z,101509.66
2023-04-20T14:52:12.828Z,101530.34
2023-04-20T14:54:40.615Z,101527.88
2023-04-20T14:57:08.350Z,101526.22
2023-04-20T14:59:37.165Z,101521.47
2023-04-20T15:02:05.822Z,101528.97
2023-04-20T15:04:33.867Z,101527.91
2023-04-20T15:07:04.063Z,101524.41
2023-04-20T15:09:32.734Z,101521.91
2023-04-20T15:12:01.862Z,101509.69
2023-04-20T15:14:29.607Z,101511.97
2023-04-20T15:16:57.426Z,101504.69
2023-04-20T15:19:25.259Z,101496.03
2023-04-20T15:21:52.970Z,101507.84
2023-04-20T15:24:22.057Z,101514.25
2023-04-20T15:26:49.783Z,101514.25
2023-04-20T15:29:17.574Z,101515.53
2023-04-20T15:31:46.814Z,101506.41
2023-04-20T15:34:17.293Z,101493.97
2023-04-20T15:36:45.833Z,101499.97
2023-04-20T15:39:13.605Z,101499.75
2023-04-20T15:41:42.680Z,101494.34
2023-04-20T15:44:10.443Z,101494.13
2023-04-20T15:46:39.221Z,101495.19
2023-04-20T15:49:07.203Z,101498.25
2023-04-20T15:51:34.969Z,101501.78
2023-04-20T15:54:02.711Z,101502.00
2023-04-20T15:56:30.459Z,101494.75
2023-04-20T15:58:59.571Z,101498.47
2023-04-20T16:01:27.398Z,101500.56
2023-04-20T16:03:55.338Z,101489.78
2023-04-20T16:06:24.178Z,101494.13
2023-04-20T16:08:54.019Z,101494.34
2023-04-20T16:11:22.229Z,101481.97
2023-04-20T16:13:50.091Z,101483.56
2023-04-20T16:16:19.231Z,101485.44
2023-04-20T16:18:47.058Z,101486.25
2023-04-20T16:21:15.423Z,101494.34
2023-04-20T16:23:43.153Z,101493.31
2023-04-20T16:26:10.969Z,101502.22
2023-04-20T16:28:38.847Z,101498.47
2023-04-20T16:31:06.758Z,101497.66
2023-04-20T16:33:37.965Z,101484.22
2023-04-20T16:36:06.247Z,101498.47
2023-04-20T16:38:33.982Z,101490.41
2023-04-20T16:41:01.738Z,101494.13
2023-04-20T16:43:29.487Z,101489.78
2023-04-20T16:45:57.207Z,101494.13
2023-04-20T16:48:24.954Z,101491.22
2023-04-20T16:50:54.180Z,101491.00
2023-04-20T16:53:21.881Z,101491.00
2023-04-20T16:55:49.620Z,101487.69
2023-04-20T16:58:17.409Z,101495.34
2023-04-20T17:00:45.183Z,101503.44
2023-04-20T17:03:13.876Z,101500.97
2023-04-20T17:05:42.315Z,101496.41
2023-04-20T17:08:11.451Z,101499.31
2023-04-20T17:10:39.477Z,101499.31
2023-04-20T17:13:07.278Z,101496.00
2023-04-20T17:15:35.121Z,101489.56
2023-04-20T17:18:03.569Z,101494.13
2023-04-20T17:20:31.357Z,101490.84
2023-04-20T17:22:59.076Z,101491.88
2023-04-20T17:25:28.256Z,101490.00
2023-04-20T17:27:56.016Z,101485.44
2023-04-20T17:30:23.824Z,101494.56
2023-04-20T17:32:51.628Z,101493.97
2023-04-20T17:35:19.358Z,101497.47
2023-04-20T17:37:47.208Z,101494.78
2023-04-20T17:40:14.981Z,101504.75
2023-04-20T17:42:44.428Z,101501.03
2023-04-20T17:45:12.732Z,101497.53
2023-04-20T17:47:40.522Z,101520.31
2023-04-20T17:50:09.665Z,101515.75
2023-04-20T17:52:37.362Z,101523.59
2023-04-20T17:55:05.670Z,101520.31
2023-04-20T17:57:33.446Z,101526.53
2023-04-20T18:00:03.935Z,101529.22
2023-04-20T18:02:31.856Z,101528.38
2023-04-20T18:05:00.910Z,101527.13
2023-04-20T18:07:29.301Z,101536.88
2023-04-20T18:09:57.001Z,101536.03
2023-04-20T18:12:24.744Z,101536.88
2023-04-20T18:14:52.447Z,101543.31
2023-04-20T18:17:21.654Z,101537.09
2023-04-20T18:19:49.379Z,101546.00
2023-04-20T18:22:17.171Z,101542.47
2023-04-20T18:24:44.974Z,101535.44
2023-04-20T18:27:13.327Z,101540.81
2023-04-20T18:29:41.163Z,101529.22
2023-04-20T18:32:09.113Z,101548.31
2023-04-20T18:34:38.202Z,101536.25
2023-04-20T18:37:05.952Z,101543.91
2023-04-20T18:39:33.876Z,101542.66
2023-04-20T18:42:02.277Z,101543.69
2023-04-20T18:44:30.311Z,101545.56
2023-04-20T18:46:58.377Z,101545.78
2023-04-20T18:49:26.224Z,101543.91
2023-04-20T18:51:55.369Z,101548.69
2023-04-20T18:54:23.106Z,101553.47
2023-04-20T18:56:50.935Z,101547.47
2023-04-20T18:59:18.627Z,101545.81
2023-04-20T19:01:47.554Z,101546.88
2023-04-20T19:04:15.325Z,101554.34
2023-04-20T19:06:43.157Z,101552.91
2023-04-20T19:09:12.221Z,101549.38
2023-04-20T19:11:40.052Z,101554.78
2023-04-20T19:14:07.893Z,101549.59
2023-04-20T19:16:35.918Z,101545.25
2023-04-20T19:19:04.083Z,101547.13
2023-04-20T19:21:32.690Z,101542.38
2023-04-20T19:24:00.567Z,101539.28
2023-04-20T19:26:29.640Z,101544.47
2023-04-20T19:28:58.269Z,101550.06
2023-04-20T19:31:26.450Z,101544.88
2023-04-20T19:33:56.546Z,101549.69
2023-04-20T19:36:24.895Z,101549.69
2023-04-20T19:38:52.628Z,101549.09
2023-04-20T19:41:20.408Z,101551.38
2023-04-20T19:43:49.508Z,101542.47
2023-04-20T19:46:17.318Z,101548.91
2023-04-20T19:48:45.268Z,101551.59
2023-04-20T19:51:12.980Z,101543.72
2023-04-20T19:53:41.013Z,101542.28
2023-04-20T19:56:08.812Z,101543.94
2023-04-20T19:58:36.582Z,101542.28
2023-04-20T20:01:06.138Z,101554.09
2023-04-20T20:03:34.079Z,101550.81
2023-04-20T20:06:01.968Z,101557.00
2023-04-20T20:08:29.963Z,101548.94
2023-04-20T20:10:57.820Z,101549.16
2023-04-20T20:13:26.234Z,101543.97
2023-04-20T20:15:54.310Z,101535.88
2023-04-20T20:18:23.468Z,101539.63
2023-04-20T20:20:51.513Z,101536.09
2023-04-20T20:23:19.268Z,101541.69
2023-04-20T20:25:47.051Z,101540.88
2023-04-20T20:28:15.282Z,101555.16
2023-04-20T20:30:45.194Z,101535.31
2023-04-20T20:33:13.078Z,101532.19
2023-04-20T20:35:42.584Z,101539.44
2023-04-20T20:38:11.049Z,101540.47
2023-04-20T20:40:39.946Z,101536.97
2023-04-20T20:43:08.537Z,101540.91
2023-04-20T20:45:37.226Z,101534.69
2023-04-20T20:48:05.629Z,101540.06
2023-04-20T20:50:33.464Z,101538.44
2023-04-20T20:53:02.537Z,101544.84
2023-04-20T20:55:30.422Z,101535.34
2023-04-20T20:57:58.200Z,101541.75
2023-04-20T21:00:25.923Z,101533.88
2023-04-20T21:02:53.810Z,101535.53
2023-04-20T21:05:22.833Z,101533.88
2023-04-20T21:07:50.821Z,101537.41
2023-04-20T21:10:19.916Z,101526.00
2023-04-20T21:12:47.647Z,101522.47
2023-04-20T21:15:15.427Z,101527.84
2023-04-20T21:17:43.470Z,101525.16
2023-04-20T21:20:12.307Z,101528.06
2023-04-20T21:22:40.156Z,101534.50
2023-04-20T21:25:08.719Z,101551.69
2023-04-20T21:27:37.820Z,101541.97
2023-04-20T21:30:06.240Z,101535.53
2023-04-20T21:32:33.922Z,101538.22
2023-04-20T21:35:01.658Z,101544.88
2023-04-20T21:37:29.347Z,101551.06
2023-04-20T21:39:57.054Z,101550.25
2023-04-20T21:42:24.725Z,101557.50
2023-04-20T21:44:53.823Z,101548.59
2023-04-20T21:47:21.881Z,101540.72
2023-04-20T21:49:49.623Z,101546.94
2023-04-20T21:52:17.294Z,101531.84
2023-04-20T21:54:44.995Z,101541.97
2023-04-20T21:57:12.746Z,101548.19
2023-04-20T21:59:40.447Z,101554.41
2023-04-20T22:02:09.600Z,101548.41
2023-04-20T22:04:37.436Z,101545.72
2023-04-20T22:07:05.306Z,101555.88
2023-04-20T22:09:33.139Z,101566.63
2023-04-20T22:12:02.039Z,101560.41
2023-04-20T22:14:30.234Z,101557.13
2023-04-20T22:16:57.964Z,101556.06
2023-04-20T22:19:27.031Z,101551.50
2023-04-20T22:21:54.832Z,101555.25
2023-04-20T22:24:22.551Z,101552.56
2023-04-20T22:26:50.257Z,101549.03
2023-04-20T22:29:18.082Z,101534.75
2023-04-20T22:31:46.043Z,101541.16
2023-04-20T22:34:13.814Z,101528.97
2023-04-20T22:36:42.916Z,101535.16
2023-04-20T22:39:10.767Z,101537.03
2023-04-20T22:41:38.554Z,101528.34
2023-04-20T22:44:06.284Z,101522.13
2023-04-20T22:46:34.005Z,101518.63
2023-04-20T22:49:01.801Z,101507.03
2023-04-20T22:51:29.860Z,101509.09
2023-04-20T22:54:00.918Z,101507.22
2023-04-20T22:56:29.402Z,101499.78
2023-04-20T22:58:57.214Z,101503.09
2023-04-20T23:01:25.217Z,101499.59
2023-04-20T23:03:53.174Z,101496.88
2023-04-20T23:06:21.990Z,101491.72
2023-04-20T23:08:49.790Z,101481.16
2023-04-20T23:11:18.881Z,101468.75
2023-04-20T23:13:47.752Z,101466.06
2023-04-20T23:16:15.554Z,101468.13
2023-04-20T23:18:43.311Z,101452.22
2023-04-20T23:21:11.049Z,101459.44
2023-04-20T23:23:38.750Z,101425.09
2023-04-20T23:26:06.431Z,101427.56
2023-04-20T23:28:35.689Z,101429.03
2023-04-20T23:31:03.415Z,101436.69
2023-04-20T23:33:31.152Z,101449.31
2023-04-20T23:35:59.485Z,101436.69
2023-04-20T23:38:27.232Z,101435.03
2023-04-20T23:40:55.043Z,101442.28
2023-04-20T23:43:22.750Z,101444.13
2023-04-20T23:45:51.872Z,101436.06
2023-04-20T23:48:19.577Z,101425.94
2023-04-20T23:50:49.851Z,101415.19
2023-04-20T23:53:17.658Z,101427.59
2023-04-20T23:55:51.702Z,101436.72
2023-04-20T23:58:19.492Z,101439.19
